createdAt,value
2023-03-05T13:43:53.704Z,16.4
2023-03-05T16:23:45.320Z,12.2
2023-03-05T17:19:01.332Z,16.3
2023-03-05T17:36:59.308Z,20.4
2023-03-05T18:01:47.346Z,19.8
2023-03-05T18:07:44.822Z,21
2023-03-05T18:13:49.709Z,20.2
2023-03-05T18:56:05.437Z,31.7
2023-03-05T19:01:57.401Z,25.5
2023-03-05T19:07:59.054Z,33.8
2023-03-05T19:13:52.719Z,30.3
2023-03-05T19:19:59.479Z,26
2023-03-05T19:26:04.380Z,22.5
2023-03-05T19:32:04.544Z,24.7
2023-03-05T19:38:03.233Z,21.3
2023-03-05T19:50:03.249Z,20.3
2023-03-05T19:55:56.891Z,22.6
2023-03-05T20:01:47.360Z,20.9
2023-03-05T20:07:51.748Z,18.7
2023-03-05T20:13:43.032Z,20.2
2023-03-05T20:19:35.769Z,19.1
2023-03-05T20:25:27.941Z,21.2
2023-03-05T20:31:22.777Z,20.3
2023-03-05T20:37:14.139Z,21.8
2023-03-05T20:43:06.808Z,21
2023-03-05T20:49:14.376Z,23.5
2023-03-05T20:55:07.477Z,22.7
2023-03-05T21:00:57.666Z,22.6
2023-03-05T21:06:52.025Z,24.4
2023-03-05T21:12:45.651Z,24.2
2023-03-05T21:18:41.803Z,26.3
2023-03-05T21:24:34.183Z,26.3
2023-03-05T21:36:47.279Z,26.7
2023-03-05T21:42:45.639Z,25.6
2023-03-05T21:48:38.203Z,28
2023-03-05T21:54:41.578Z,27
2023-03-05T22:00:39.980Z,28.7
2023-03-05T22:24:43.924Z,30.1
2023-03-05T22:30:42.237Z,27
2023-03-05T22:36:40.395Z,28.8
2023-03-05T22:48:31.688Z,33.4
2023-03-05T22:54:26.005Z,32.5
2023-03-05T23:00:55.931Z,32.3
2023-03-05T23:12:52.845Z,31.5
2023-03-05T23:18:43.509Z,28.8
2023-03-05T23:24:37.728Z,28.7
2023-03-05T23:30:31.360Z,28.3
2023-03-05T23:36:22.244Z,27
2023-03-05T23:42:13.659Z,26.6
2023-03-05T23:48:04.537Z,29.4
2023-03-05T23:53:54.983Z,27
2023-03-05T23:59:47.496Z,25.5
